Almont, Michigan
Current Conditions -  °F | °C
As of 12:14 AM on Saturday 29 Nov 2014 (Local Time) from KD95 Reporting Station
Overcast Overcast  
Wind Chill: -7°   Ceiling: 3800
Heat Index: -3°   Visibility: 7mi
Dew Point: -5°   Wind: 6mph
Humidity: 91%   Direction: 160°SSE
Pressure: 30.06"   Gusts: NA
Location:  42.92°N, 83.04°W
Report Text: KD95 290514Z AUTO 16005KT 7SM SCT011 SCT017 OVC038 M03/M04 A3006 RMK AO2 T10321045
Loading
Personal Weather Stations






























Interactive Weather Map New forecast layout! Learn more

10-Day Weather Forecast

Advertisements
Track Severe Weather on mobile